createdAt,value
2018-06-18T00:01:38.627Z,15.00
2018-06-18T00:04:06.229Z,15.10
2018-06-18T00:06:33.435Z,15.00
2018-06-18T00:09:00.638Z,15.00
2018-06-18T00:11:27.936Z,15.00
2018-06-18T00:13:55.347Z,14.90
2018-06-18T00:18:49.780Z,14.90
2018-06-18T00:21:17.096Z,14.90
2018-06-18T00:23:44.302Z,14.90
2018-06-18T00:26:11.523Z,14.90
2018-06-18T00:28:38.730Z,14.80
2018-06-18T00:31:06.348Z,14.80
2018-06-18T00:33:33.548Z,14.80
2018-06-18T00:36:00.741Z,14.80
2018-06-18T00:38:27.942Z,14.70
2018-06-18T00:40:55.133Z,14.70
2018-06-18T00:43:22.357Z,14.70
2018-06-18T00:45:49.552Z,14.70
2018-06-18T00:48:16.765Z,14.70
2018-06-18T00:50:43.976Z,14.60
2018-06-18T00:53:11.193Z,14.70
2018-06-18T00:56:19.497Z,14.70
2018-06-18T00:58:46.701Z,14.70
2018-06-18T01:01:14.026Z,14.70
2018-06-18T01:06:08.624Z,14.70
2018-06-18T01:08:35.817Z,14.70
2018-06-18T01:11:03.211Z,14.70
2018-06-18T01:13:30.433Z,14.60
2018-06-18T01:15:57.986Z,14.60
2018-06-18T01:18:25.677Z,14.70
2018-06-18T01:20:52.886Z,14.70
2018-06-18T01:23:47.013Z,14.70
2018-06-18T01:26:14.242Z,14.70
2018-06-18T01:28:41.457Z,14.60
2018-06-18T01:31:08.654Z,14.60
2018-06-18T01:33:36.009Z,14.60
2018-06-18T01:36:03.225Z,14.60
2018-06-18T01:38:30.471Z,14.60
2018-06-18T01:40:57.677Z,14.50
2018-06-18T01:43:25.050Z,14.60
2018-06-18T01:45:52.313Z,14.60
2018-06-18T01:48:19.518Z,14.60
2018-06-18T01:50:46.722Z,14.60
2018-06-18T01:53:13.934Z,14.60
2018-06-18T01:55:41.151Z,14.60
2018-06-18T01:58:08.341Z,14.60
2018-06-18T02:00:35.554Z,14.60
2018-06-18T02:03:02.855Z,14.50
2018-06-18T02:05:30.229Z,14.60
2018-06-18T02:07:57.447Z,14.50
2018-06-18T02:10:24.676Z,14.50
2018-06-18T02:12:51.870Z,14.50
2018-06-18T02:15:19.089Z,14.50
2018-06-18T02:17:46.302Z,14.50
2018-06-18T02:20:13.508Z,14.50
2018-06-18T02:22:40.730Z,14.50
2018-06-18T02:25:07.937Z,14.40
2018-06-18T02:27:40.994Z,14.40
2018-06-18T02:30:13.813Z,14.30
2018-06-18T02:32:46.672Z,14.30
2018-06-18T02:35:19.759Z,14.30
2018-06-18T02:37:52.702Z,14.30
2018-06-18T02:40:25.782Z,14.30
2018-06-18T02:42:52.985Z,14.30
2018-06-18T02:45:20.194Z,14.30
2018-06-18T02:47:47.390Z,14.30
2018-06-18T02:50:14.688Z,14.40
2018-06-18T02:52:41.882Z,14.40
2018-06-18T02:55:09.125Z,14.40
2018-06-18T03:00:03.862Z,14.40
2018-06-18T03:02:31.073Z,14.30
2018-06-18T03:04:58.313Z,14.30
2018-06-18T03:07:25.525Z,14.30
2018-06-18T03:09:52.729Z,14.30
2018-06-18T03:12:19.942Z,14.30
2018-06-18T03:14:47.148Z,14.30
2018-06-18T03:17:14.360Z,14.30
2018-06-18T03:20:48.018Z,14.30
2018-06-18T03:23:20.877Z,14.20
2018-06-18T03:25:53.858Z,14.20
2018-06-18T03:28:26.866Z,14.20
2018-06-18T03:30:54.106Z,14.20
2018-06-18T03:33:21.356Z,14.20
2018-06-18T03:38:15.791Z,14.20
2018-06-18T03:40:43.090Z,14.20
2018-06-18T03:43:10.294Z,14.20
2018-06-18T03:45:37.507Z,14.20
2018-06-18T03:48:07.886Z,14.30
2018-06-18T03:50:35.409Z,14.30
2018-06-18T03:53:02.589Z,14.30
2018-06-18T03:55:32.643Z,14.30
2018-06-18T03:58:04.420Z,14.30
2018-06-18T04:00:37.927Z,14.30
2018-06-18T04:03:11.049Z,14.30
2018-06-18T04:05:44.098Z,14.40
2018-06-18T04:08:17.961Z,14.40
2018-06-18T04:10:51.026Z,14.40
2018-06-18T04:13:18.230Z,14.40
2018-06-18T04:15:45.454Z,14.40
2018-06-18T04:18:12.672Z,14.40
2018-06-18T04:20:45.139Z,14.30
2018-06-18T04:23:12.474Z,14.30
2018-06-18T04:25:39.680Z,14.30
2018-06-18T04:28:06.950Z,14.30
2018-06-18T04:30:34.155Z,14.40
2018-06-18T04:33:01.410Z,14.40
2018-06-18T04:35:28.634Z,14.40
2018-06-18T04:37:55.878Z,14.40
2018-06-18T04:40:23.127Z,14.40
2018-06-18T04:42:55.975Z,14.30
2018-06-18T04:45:29.007Z,14.30
2018-06-18T04:48:02.009Z,14.30
2018-06-18T04:50:34.963Z,14.20
2018-06-18T04:53:02.189Z,14.20
2018-06-18T04:55:29.415Z,14.10
2018-06-18T04:57:56.637Z,14.00
2018-06-18T05:00:31.189Z,14.00
2018-06-18T05:02:59.037Z,13.90
2018-06-18T05:05:26.253Z,13.90
2018-06-18T05:09:15.411Z,13.90
2018-06-18T05:11:42.601Z,14.00
2018-06-18T05:14:09.809Z,14.20
2018-06-18T05:16:37.098Z,14.20
2018-06-18T05:19:04.585Z,14.30
2018-06-18T05:21:31.821Z,14.40
2018-06-18T05:23:59.021Z,14.40
2018-06-18T05:26:26.241Z,14.50
2018-06-18T05:28:53.504Z,14.50
2018-06-18T05:31:20.706Z,14.70
2018-06-18T05:33:47.913Z,14.90
2018-06-18T05:36:15.136Z,15.10
2018-06-18T05:38:42.389Z,15.20
2018-06-18T05:41:09.598Z,15.50
2018-06-18T05:43:36.821Z,15.70
2018-06-18T05:46:04.077Z,16.10
2018-06-18T05:48:31.289Z,16.50
2018-06-18T05:50:58.485Z,17.00
2018-06-18T05:53:25.693Z,16.80
2018-06-18T05:55:53.005Z,17.00
2018-06-18T05:58:20.208Z,17.20
2018-06-18T06:00:47.658Z,17.40
2018-06-18T06:03:14.887Z,17.30
2018-06-18T06:05:42.090Z,17.30
2018-06-18T06:08:09.460Z,17.20
2018-06-18T06:10:36.914Z,17.20
2018-06-18T06:13:04.782Z,17.40
2018-06-18T06:15:31.977Z,17.50
2018-06-18T06:20:26.415Z,17.80
2018-06-18T06:22:53.617Z,18.10
2018-06-18T06:25:20.821Z,18.30
2018-06-18T06:27:48.032Z,18.60
2018-06-18T06:30:15.233Z,18.60
2018-06-18T06:32:42.417Z,18.60
2018-06-18T06:35:30.670Z,18.80
2018-06-18T06:37:57.860Z,18.80
2018-06-18T06:40:25.502Z,18.90
2018-06-18T06:42:52.722Z,18.90
2018-06-18T06:45:20.229Z,18.80
2018-06-18T06:47:47.430Z,18.80
2018-06-18T06:50:15.042Z,19.10
2018-06-18T06:52:42.269Z,19.20
2018-06-18T06:55:09.469Z,19.10
2018-06-18T06:57:36.667Z,19.10
2018-06-18T07:00:03.905Z,19.10
2018-06-18T07:02:31.481Z,18.90
2018-06-18T07:04:58.682Z,18.80
2018-06-18T07:07:25.880Z,18.90
2018-06-18T07:09:53.270Z,19.30
2018-06-18T07:12:20.471Z,19.60
2018-06-18T07:14:47.689Z,19.90
2018-06-18T07:17:14.901Z,19.90
2018-06-18T07:19:42.106Z,20.00
2018-06-18T07:22:09.306Z,19.40
2018-06-18T07:24:36.511Z,19.50
2018-06-18T07:27:03.772Z,19.50
2018-06-18T07:29:30.913Z,19.80
2018-06-18T07:31:58.106Z,19.90
2018-06-18T07:34:25.311Z,20.20
2018-06-18T07:36:52.497Z,20.50
2018-06-18T07:39:19.690Z,20.80
2018-06-18T07:41:46.877Z,20.90
2018-06-18T07:44:14.069Z,21.00
2018-06-18T07:46:41.278Z,21.20
2018-06-18T07:49:08.490Z,21.50
2018-06-18T07:51:35.787Z,22.00
2018-06-18T07:54:02.933Z,21.60
2018-06-18T07:56:30.163Z,21.80
2018-06-18T07:58:57.367Z,22.10
2018-06-18T08:01:24.613Z,22.90
2018-06-18T08:03:51.877Z,22.70
2018-06-18T08:06:19.079Z,22.80
2018-06-18T08:08:46.298Z,23.00
2018-06-18T08:11:13.502Z,23.20
2018-06-18T08:13:40.714Z,23.50
2018-06-18T08:16:07.961Z,23.40
2018-06-18T08:18:35.149Z,23.20
2018-06-18T08:21:02.354Z,23.70
2018-06-18T08:23:29.555Z,24.30
2018-06-18T08:25:56.766Z,24.40
2018-06-18T08:30:51.179Z,24.80
2018-06-18T08:33:18.386Z,25.20
2018-06-18T08:35:45.618Z,25.60
2018-06-18T08:38:12.826Z,25.70
2018-06-18T08:40:40.035Z,26.00
2018-06-18T08:43:07.217Z,25.30
2018-06-18T08:45:34.425Z,24.40
2018-06-18T08:48:01.658Z,24.30
2018-06-18T08:50:34.641Z,23.90
2018-06-18T08:53:07.633Z,24.00
2018-06-18T08:55:40.529Z,24.40
2018-06-18T08:58:13.496Z,25.20
2018-06-18T09:00:46.317Z,25.50
2018-06-18T09:03:19.230Z,25.70
2018-06-18T09:05:53.148Z,26.20
2018-06-18T09:08:23.386Z,25.50
2018-06-18T09:10:51.145Z,25.90
2018-06-18T09:13:18.356Z,26.20
2018-06-18T09:15:45.567Z,27.50
2018-06-18T09:18:12.765Z,28.10
2018-06-18T09:20:39.965Z,28.70
2018-06-18T09:23:09.414Z,29.20
2018-06-18T09:25:41.241Z,29.60
2018-06-18T09:28:08.478Z,29.60
2018-06-18T09:30:35.669Z,29.40
2018-06-18T09:33:02.888Z,27.30
2018-06-18T09:35:30.082Z,25.80
2018-06-18T09:37:57.257Z,25.10
2018-06-18T09:40:24.453Z,26.20
2018-06-18T09:42:51.666Z,27.60
2018-06-18T09:45:18.870Z,28.60
2018-06-18T09:47:46.087Z,28.30
2018-06-18T09:50:18.945Z,27.00
2018-06-18T09:52:51.909Z,24.80
2018-06-18T09:55:24.843Z,24.20
2018-06-18T09:57:57.793Z,25.10
2018-06-18T10:00:58.593Z,24.40
2018-06-18T10:03:25.842Z,24.00
2018-06-18T10:05:53.066Z,24.30
2018-06-18T10:08:20.323Z,24.80
2018-06-18T10:10:47.487Z,26.60
2018-06-18T10:13:14.813Z,28.60
2018-06-18T10:15:42.016Z,29.80
2018-06-18T10:18:09.221Z,30.40
2018-06-18T10:20:36.482Z,29.20
2018-06-18T10:23:04.182Z,27.20
2018-06-18T10:25:31.913Z,25.20
2018-06-18T10:27:59.129Z,24.70
2018-06-18T10:30:26.342Z,25.70
2018-06-18T10:32:59.454Z,26.80
2018-06-18T10:35:32.568Z,28.30
2018-06-18T10:39:07.313Z,29.50
2018-06-18T10:41:40.249Z,30.20
2018-06-18T10:44:07.453Z,30.80
2018-06-18T10:46:34.642Z,29.00
2018-06-18T10:49:01.908Z,28.20
2018-06-18T10:51:29.078Z,28.60
2018-06-18T10:53:56.281Z,28.50
2018-06-18T10:56:23.472Z,27.20
2018-06-18T10:58:50.669Z,27.00
2018-06-18T11:01:21.523Z,28.10
2018-06-18T11:03:49.883Z,28.60
2018-06-18T11:06:22.747Z,28.70
2018-06-18T11:11:17.161Z,29.20
2018-06-18T11:13:44.365Z,29.40
2018-06-18T11:16:11.594Z,29.10
2018-06-18T11:18:44.637Z,29.40
2018-06-18T11:21:17.594Z,28.90
2018-06-18T11:23:50.525Z,28.60
2018-06-18T11:26:23.345Z,28.10
2018-06-18T11:28:50.493Z,28.40
2018-06-18T11:31:17.756Z,28.80
2018-06-18T11:33:44.929Z,28.50
2018-06-18T11:36:12.117Z,28.60
2018-06-18T11:38:39.324Z,29.20
2018-06-18T11:41:06.536Z,28.50
2018-06-18T11:43:33.809Z,28.20
2018-06-18T11:46:01.000Z,28.40
2018-06-18T11:48:28.213Z,28.30
2018-06-18T11:50:55.456Z,27.40
2018-06-18T11:53:22.679Z,27.40
2018-06-18T11:55:49.935Z,27.90
2018-06-18T11:59:22.765Z,27.90
2018-06-18T12:01:55.717Z,27.90
2018-06-18T12:04:28.698Z,28.20
2018-06-18T12:07:01.755Z,28.60
2018-06-18T12:09:31.410Z,29.50
2018-06-18T12:11:58.592Z,29.70
2018-06-18T12:14:25.798Z,28.10
2018-06-18T12:16:53.019Z,27.80
2018-06-18T12:19:20.225Z,27.80
2018-06-18T12:21:47.427Z,27.80
2018-06-18T12:24:14.637Z,28.60
2018-06-18T12:26:41.826Z,29.80
2018-06-18T12:29:09.062Z,30.20
2018-06-18T12:31:36.286Z,30.30
2018-06-18T12:34:03.486Z,30.10
2018-06-18T12:36:30.853Z,30.80
2018-06-18T12:38:58.061Z,30.90
2018-06-18T12:41:25.296Z,31.00
2018-06-18T12:43:54.348Z,31.40
2018-06-18T12:46:27.325Z,32.40
2018-06-18T12:49:00.216Z,32.20
2018-06-18T12:51:33.111Z,31.20
2018-06-18T12:54:06.166Z,31.60
2018-06-18T12:56:39.237Z,30.50
2018-06-18T12:59:06.437Z,30.00
2018-06-18T13:01:35.851Z,28.80
2018-06-18T13:04:04.849Z,28.10
2018-06-18T13:06:32.058Z,27.00
2018-06-18T13:08:59.261Z,26.60
2018-06-18T13:11:26.468Z,25.40
2018-06-18T13:13:53.694Z,25.60
2018-06-18T13:16:20.906Z,26.80
2018-06-18T13:18:48.133Z,27.80
2018-06-18T13:21:15.341Z,29.00
2018-06-18T13:23:42.554Z,29.40
2018-06-18T13:26:09.762Z,28.70
2018-06-18T13:28:36.949Z,29.40
2018-06-18T13:31:04.205Z,29.60
2018-06-18T13:33:31.392Z,30.00
2018-06-18T13:35:58.598Z,29.60
2018-06-18T13:38:31.693Z,28.20
2018-06-18T13:42:02.331Z,27.60
2018-06-18T13:44:35.138Z,28.10
2018-06-18T13:48:06.935Z,29.30
2018-06-18T13:50:34.169Z,29.80
2018-06-18T13:53:01.454Z,29.50
2018-06-18T13:55:28.679Z,28.70
2018-06-18T13:57:55.870Z,28.20
2018-06-18T14:00:23.078Z,27.30
2018-06-18T14:02:50.300Z,26.60
2018-06-18T14:05:17.554Z,26.50
2018-06-18T14:07:44.774Z,27.10
2018-06-18T14:10:11.970Z,28.20
2018-06-18T14:12:39.269Z,28.50
2018-06-18T14:15:06.482Z,28.20
2018-06-18T14:17:33.700Z,27.30
2018-06-18T14:20:06.604Z,27.10
2018-06-18T14:22:33.805Z,27.60
2018-06-18T14:25:00.997Z,27.90
2018-06-18T14:27:28.372Z,28.50
2018-06-18T14:31:01.321Z,28.70
2018-06-18T14:33:34.322Z,28.00
2018-06-18T14:36:07.299Z,27.60
2018-06-18T14:38:40.185Z,27.70
2018-06-18T14:41:08.013Z,28.30
2018-06-18T14:43:35.214Z,29.00
2018-06-18T14:46:02.482Z,29.50
2018-06-18T14:48:29.690Z,28.30
2018-06-18T14:50:56.817Z,27.60
2018-06-18T14:53:24.026Z,26.80
2018-06-18T14:56:25.508Z,25.80
2018-06-18T14:59:00.102Z,25.30
2018-06-18T15:01:27.305Z,25.10
2018-06-18T15:03:54.610Z,25.80
2018-06-18T15:06:21.734Z,26.30
2018-06-18T15:08:48.959Z,26.80
2018-06-18T15:11:16.154Z,27.20
2018-06-18T15:13:43.430Z,27.60
2018-06-18T15:16:31.677Z,27.70
2018-06-18T15:19:00.121Z,28.20
2018-06-18T15:21:28.881Z,28.60
2018-06-18T15:23:56.781Z,28.40
2018-06-18T15:26:23.988Z,27.70
2018-06-18T15:31:18.537Z,27.20
2018-06-18T15:33:45.769Z,27.60
2018-06-18T15:36:12.975Z,27.80
2018-06-18T15:38:40.242Z,27.80
2018-06-18T15:41:07.448Z,27.70
2018-06-18T15:43:34.663Z,27.40
2018-06-18T15:46:01.866Z,27.10
2018-06-18T15:48:29.129Z,27.10
2018-06-18T15:50:56.342Z,27.20
2018-06-18T15:53:23.556Z,27.90
2018-06-18T15:55:50.770Z,27.90
2018-06-18T15:58:17.943Z,27.90
2018-06-18T16:00:45.191Z,27.60
2018-06-18T16:03:12.422Z,27.60
2018-06-18T16:08:07.063Z,28.40
2018-06-18T16:10:34.270Z,28.70
2018-06-18T16:13:01.518Z,28.40
2018-06-18T16:15:28.758Z,27.70
2018-06-18T16:17:56.042Z,27.20
2018-06-18T16:20:23.209Z,27.10
2018-06-18T16:22:50.624Z,27.30
2018-06-18T16:25:17.831Z,27.60
2018-06-18T16:27:45.039Z,27.80
2018-06-18T16:30:12.285Z,28.00
2018-06-18T16:32:39.537Z,28.10
2018-06-18T16:35:06.758Z,27.90
2018-06-18T16:37:33.962Z,27.70
2018-06-18T16:40:01.169Z,27.70
2018-06-18T16:42:28.393Z,27.20
2018-06-18T16:44:55.613Z,27.30
2018-06-18T16:47:22.809Z,27.10
2018-06-18T16:49:50.017Z,27.00
2018-06-18T16:52:17.227Z,27.20
2018-06-18T16:59:39.061Z,26.70
2018-06-18T17:02:06.285Z,25.90
2018-06-18T17:07:00.789Z,25.00
2018-06-18T17:09:28.017Z,25.10
2018-06-18T17:11:55.213Z,25.40
2018-06-18T17:14:22.438Z,25.30
2018-06-18T17:16:50.438Z,24.60
2018-06-18T17:19:18.150Z,24.00
2018-06-18T17:21:45.472Z,23.40
2018-06-18T17:24:12.691Z,23.00
2018-06-18T17:26:39.914Z,22.80
2018-06-18T17:29:07.194Z,22.60
2018-06-18T17:31:34.402Z,22.30
2018-06-18T17:34:01.635Z,22.00
2018-06-18T17:38:56.214Z,21.30
2018-06-18T17:41:23.412Z,20.90
2018-06-18T17:43:50.617Z,20.70
2018-06-18T17:46:17.896Z,20.50
2018-06-18T17:48:45.146Z,20.40
2018-06-18T17:51:12.350Z,20.40
2018-06-18T17:53:39.562Z,20.30
2018-06-18T17:56:06.886Z,20.30
2018-06-18T17:58:34.129Z,20.10
2018-06-18T18:01:02.074Z,20.00
2018-06-18T18:03:29.296Z,19.90
2018-06-18T18:05:56.499Z,19.80
2018-06-18T18:08:23.689Z,19.60
2018-06-18T18:10:50.940Z,19.60
2018-06-18T18:13:18.246Z,19.50
2018-06-18T18:15:45.429Z,19.40
2018-06-18T18:18:12.694Z,19.40
2018-06-18T18:20:39.914Z,19.30
2018-06-18T18:23:07.106Z,19.30
2018-06-18T18:25:34.309Z,19.30
2018-06-18T18:28:01.509Z,19.20
2018-06-18T18:30:28.714Z,19.20
2018-06-18T18:32:56.009Z,19.10
2018-06-18T18:35:23.212Z,19.10
2018-06-18T18:37:50.825Z,19.00
2018-06-18T18:40:18.055Z,18.90
2018-06-18T18:42:45.280Z,18.90
2018-06-18T18:45:12.493Z,18.80
2018-06-18T18:47:39.709Z,18.70
2018-06-18T18:50:07.015Z,18.60
2018-06-18T18:52:34.258Z,18.50
2018-06-18T18:55:42.953Z,18.40
2018-06-18T18:58:22.398Z,18.30
2018-06-18T19:03:20.580Z,18.10
2018-06-18T19:05:48.829Z,18.00
2018-06-18T19:08:20.538Z,17.90
2018-06-18T19:10:47.825Z,17.80
2018-06-18T19:13:18.572Z,17.70
2018-06-18T19:15:46.652Z,17.60
2018-06-18T19:18:13.869Z,17.50
2018-06-18T19:20:45.363Z,17.40
2018-06-18T19:23:12.661Z,17.30
2018-06-18T19:25:39.921Z,17.30
2018-06-18T19:28:07.176Z,17.10
2018-06-18T19:30:35.458Z,17.00
2018-06-18T19:33:06.485Z,16.90
2018-06-18T19:35:33.732Z,16.80
2018-06-18T19:38:00.994Z,16.70
2018-06-18T19:40:28.193Z,16.60
2018-06-18T19:42:55.394Z,16.50
2018-06-18T19:45:23.623Z,16.50
2018-06-18T19:47:58.586Z,16.40
2018-06-18T19:50:25.926Z,16.30
2018-06-18T19:52:53.141Z,16.20
2018-06-18T19:55:22.573Z,16.20
2018-06-18T19:57:49.861Z,16.10
2018-06-18T20:00:17.215Z,16.00
2018-06-18T20:02:44.602Z,16.00
2018-06-18T20:05:13.000Z,15.90
2018-06-18T20:08:08.057Z,15.90
2018-06-18T20:10:35.249Z,15.90
2018-06-18T20:13:02.542Z,15.80
2018-06-18T20:15:29.753Z,15.80
2018-06-18T20:17:56.993Z,15.80
2018-06-18T20:20:24.257Z,15.80
2018-06-18T20:22:51.536Z,15.70
2018-06-18T20:25:23.021Z,15.70
2018-06-18T20:27:50.247Z,15.70
2018-06-18T20:30:17.485Z,15.70
2018-06-18T20:32:44.694Z,15.60
2018-06-18T20:35:17.894Z,15.60
2018-06-18T20:37:45.590Z,15.60
2018-06-18T20:40:12.794Z,15.60
2018-06-18T20:42:40.007Z,15.60
2018-06-18T20:45:07.297Z,15.60
2018-06-18T20:47:34.526Z,15.60
2018-06-18T20:50:01.743Z,15.60
2018-06-18T20:52:28.945Z,15.50
2018-06-18T20:54:56.137Z,15.50
2018-06-18T20:57:23.345Z,15.50
2018-06-18T20:59:50.561Z,15.50
2018-06-18T21:02:17.879Z,15.50
2018-06-18T21:04:45.086Z,15.60
2018-06-18T21:07:12.301Z,15.50
2018-06-18T21:09:39.522Z,15.60
2018-06-18T21:12:06.741Z,15.60
2018-06-18T21:14:34.055Z,15.60
2018-06-18T21:19:28.470Z,15.50
2018-06-18T21:21:55.663Z,15.50
2018-06-18T21:24:22.869Z,15.50
2018-06-18T21:26:50.100Z,15.50
2018-06-18T21:29:17.311Z,15.50
2018-06-18T21:31:44.501Z,15.40
2018-06-18T21:34:11.742Z,15.40
2018-06-18T21:36:38.952Z,15.40
2018-06-18T21:39:07.304Z,15.40
2018-06-18T21:41:34.505Z,15.40
2018-06-18T21:44:01.732Z,15.40
2018-06-18T21:46:28.916Z,15.30
2018-06-18T21:48:56.117Z,15.20
2018-06-18T21:51:23.334Z,15.20
2018-06-18T21:53:50.546Z,15.10
2018-06-18T21:56:17.949Z,15.00
2018-06-18T21:58:45.167Z,15.00
2018-06-18T22:01:12.386Z,15.00
2018-06-18T22:03:39.610Z,14.90
2018-06-18T22:06:06.835Z,14.80
2018-06-18T22:08:34.064Z,14.80
2018-06-18T22:11:01.263Z,14.80
2018-06-18T22:13:28.494Z,14.90
2018-06-18T22:15:55.717Z,14.90
2018-06-18T22:21:14.133Z,15.00
2018-06-18T22:23:41.417Z,15.00
2018-06-18T22:26:08.634Z,15.00
2018-06-18T22:28:38.165Z,15.00
2018-06-18T22:31:05.413Z,15.00
2018-06-18T22:33:32.642Z,14.90
2018-06-18T22:36:00.070Z,14.90
2018-06-18T22:38:27.348Z,14.90
2018-06-18T22:40:54.568Z,14.90
2018-06-18T22:43:21.794Z,14.90
2018-06-18T22:45:49.009Z,14.90
2018-06-18T22:48:16.249Z,14.80
2018-06-18T22:50:43.509Z,14.80
2018-06-18T22:53:10.769Z,14.80
2018-06-18T22:55:37.989Z,14.80
2018-06-18T22:58:05.188Z,14.70
2018-06-18T23:00:32.413Z,14.70
2018-06-18T23:02:59.642Z,14.70
2018-06-18T23:05:27.048Z,14.70
2018-06-18T23:07:54.717Z,14.70
2018-06-18T23:10:21.965Z,14.70
2018-06-18T23:12:49.210Z,14.70
2018-06-18T23:15:16.462Z,14.70
2018-06-18T23:17:43.676Z,14.70
2018-06-18T23:20:10.949Z,14.70
2018-06-18T23:22:38.812Z,14.60
2018-06-18T23:25:06.397Z,14.60
2018-06-18T23:27:33.621Z,14.60
2018-06-18T23:30:00.869Z,14.60
2018-06-18T23:32:28.089Z,14.60
2018-06-18T23:34:55.306Z,14.60
2018-06-18T23:37:22.560Z,14.60
2018-06-18T23:39:49.817Z,14.60
2018-06-18T23:42:17.228Z,14.70
2018-06-18T23:44:44.466Z,14.70
2018-06-18T23:47:11.680Z,14.60
2018-06-18T23:49:38.897Z,14.60
2018-06-18T23:52:06.124Z,14.60
2018-06-18T23:54:33.357Z,14.60
2018-06-18T23:57:00.633Z,14.60
2018-06-18T23:59:28.500Z,14.60
